createdAt,value
2023-02-19T00:00:49.395Z,11.13
2023-02-19T00:02:53.117Z,9.25
2023-02-19T00:04:56.272Z,9.40
2023-02-19T00:06:59.232Z,14.80
2023-02-19T00:09:02.713Z,16.05
2023-02-19T00:11:07.821Z,14.02
2023-02-19T00:13:10.996Z,11.07
2023-02-19T00:15:15.490Z,19.55
2023-02-19T00:17:18.391Z,20.80
2023-02-19T00:19:21.918Z,37.58
2023-02-19T00:21:25.949Z,34.42
2023-02-19T00:23:28.995Z,29.75
2023-02-19T00:25:32.271Z,22.45
2023-02-19T00:27:35.393Z,14.13
2023-02-19T00:29:38.323Z,16.52
2023-02-19T00:31:42.968Z,9.05
2023-02-19T00:33:46.478Z,9.57
2023-02-19T00:35:49.442Z,11.00
2023-02-19T00:37:52.273Z,7.85
2023-02-19T00:39:55.234Z,5.60
2023-02-19T00:41:58.115Z,5.53
2023-02-19T00:44:02.923Z,5.32
2023-02-19T00:46:05.982Z,5.13
2023-02-19T00:48:11.074Z,5.03
2023-02-19T00:50:14.640Z,4.97
2023-02-19T00:52:17.676Z,2.75
2023-02-19T00:54:22.854Z,4.93
2023-02-19T00:56:25.875Z,4.78
2023-02-19T00:58:29.346Z,6.05
2023-02-19T01:00:33.895Z,6.15
2023-02-19T01:02:36.794Z,10.85
2023-02-19T01:04:41.335Z,3.97
2023-02-19T01:06:44.234Z,4.60
2023-02-19T01:08:47.561Z,2.47
2023-02-19T01:10:50.351Z,5.57
2023-02-19T01:12:53.293Z,4.63
2023-02-19T01:14:56.232Z,4.05
2023-02-19T01:16:59.510Z,4.30
2023-02-19T01:19:02.550Z,3.85
2023-02-19T01:21:09.580Z,4.32
2023-02-19T01:23:14.359Z,7.55
2023-02-19T01:25:17.499Z,9.17
2023-02-19T01:27:20.589Z,12.25
2023-02-19T01:29:23.549Z,14.63
2023-02-19T01:31:27.487Z,8.77
2023-02-19T01:33:31.069Z,11.15
2023-02-19T01:35:34.079Z,7.93
2023-02-19T01:37:38.833Z,7.35
2023-02-19T01:39:41.793Z,9.70
2023-02-19T01:41:44.782Z,7.32
2023-02-19T01:44:00.432Z,7.30
2023-02-19T01:46:04.752Z,6.65
2023-02-19T01:48:12.236Z,5.88
2023-02-19T01:50:15.432Z,4.82
2023-02-19T01:52:24.015Z,3.95
2023-02-19T01:54:31.901Z,5.05
2023-02-19T01:56:38.636Z,8.52
2023-02-19T01:58:42.273Z,6.47
2023-02-19T02:00:45.513Z,5.22
2023-02-19T02:02:53.245Z,4.00
2023-02-19T02:04:58.872Z,5.45
2023-02-19T02:07:24.195Z,5.10
2023-02-19T02:09:49.039Z,4.07
2023-02-19T02:11:53.052Z,9.48
2023-02-19T02:13:57.394Z,6.85
2023-02-19T02:16:09.198Z,10.07
2023-02-19T02:18:20.996Z,6.18
2023-02-19T02:20:36.011Z,7.25
2023-02-19T02:22:46.031Z,5.25
2023-02-19T02:25:21.994Z,3.58
2023-02-19T02:27:39.321Z,5.82
2023-02-19T02:30:20.193Z,5.82
2023-02-19T02:32:27.476Z,7.72
2023-02-19T02:34:35.736Z,8.70
2023-02-19T02:36:42.359Z,14.68
2023-02-19T02:38:49.796Z,10.00
2023-02-19T02:40:57.444Z,9.95
2023-02-19T02:43:01.488Z,9.38
2023-02-19T02:45:37.174Z,5.88
2023-02-19T02:47:51.366Z,5.97
2023-02-19T02:50:05.411Z,7.60
2023-02-19T02:52:29.615Z,5.97
2023-02-19T02:54:53.506Z,7.53
2023-02-19T02:56:59.766Z,5.90
2023-02-19T02:59:09.246Z,5.97
2023-02-19T03:01:37.274Z,5.97
2023-02-19T03:03:44.435Z,4.85
2023-02-19T03:05:53.299Z,6.53
2023-02-19T03:08:04.548Z,6.50
2023-02-19T03:10:13.954Z,5.75
2023-02-19T03:12:37.914Z,9.57
2023-02-19T03:15:05.315Z,9.00
2023-02-19T03:17:33.034Z,8.68
2023-02-19T03:19:43.473Z,6.75
2023-02-19T03:21:51.041Z,6.78
2023-02-19T03:24:14.753Z,6.22
2023-02-19T03:26:19.852Z,7.43
2023-02-19T03:28:49.323Z,7.75
2023-02-19T03:30:55.982Z,6.63
2023-02-19T03:33:02.914Z,6.15
2023-02-19T03:35:12.032Z,7.25
2023-02-19T03:37:19.711Z,6.75
2023-02-19T03:39:24.153Z,11.63
2023-02-19T03:41:35.073Z,9.35
2023-02-19T03:43:43.129Z,6.82
2023-02-19T03:45:54.226Z,10.93
2023-02-19T03:48:13.631Z,7.88
2023-02-19T03:50:21.990Z,7.80
2023-02-19T03:52:35.624Z,9.77
2023-02-19T03:54:45.073Z,8.88
2023-02-19T03:56:53.347Z,6.72
2023-02-19T03:59:02.636Z,8.55
2023-02-19T04:01:09.907Z,5.63
2023-02-19T04:03:18.716Z,7.95
2023-02-19T04:05:27.445Z,4.25
2023-02-19T04:07:33.140Z,5.57
2023-02-19T04:09:40.196Z,5.43
2023-02-19T04:11:48.918Z,5.60
2023-02-19T04:13:57.217Z,4.57
2023-02-19T04:16:07.349Z,5.93
2023-02-19T04:18:14.877Z,4.00
2023-02-19T04:20:19.280Z,4.20
2023-02-19T04:22:24.319Z,8.63
2023-02-19T04:24:31.569Z,6.50
2023-02-19T04:26:35.959Z,4.75
2023-02-19T04:28:40.388Z,5.63
2023-02-19T04:30:44.067Z,4.13
2023-02-19T04:32:47.020Z,3.50
2023-02-19T04:34:49.997Z,4.05
2023-02-19T04:36:52.852Z,5.50
2023-02-19T04:38:57.316Z,7.90
2023-02-19T04:41:00.282Z,8.05
2023-02-19T04:43:03.193Z,13.13
2023-02-19T04:45:06.674Z,16.80
2023-02-19T04:47:09.711Z,24.52
2023-02-19T04:49:12.621Z,33.80
2023-02-19T04:51:15.674Z,32.70
2023-02-19T04:53:18.600Z,41.38
2023-02-19T04:55:23.055Z,34.28
2023-02-19T04:57:25.914Z,33.75
2023-02-19T04:59:28.914Z,38.85
2023-02-19T05:01:31.851Z,28.58
2023-02-19T05:03:37.630Z,26.60
2023-02-19T05:05:40.771Z,29.52
2023-02-19T05:07:43.721Z,27.58
2023-02-19T05:09:46.514Z,27.75
2023-02-19T05:11:50.914Z,30.52
2023-02-19T05:13:56.510Z,24.05
2023-02-19T05:16:01.502Z,26.55
2023-02-19T05:18:04.818Z,31.83
2023-02-19T05:20:09.191Z,27.08
2023-02-19T05:22:12.070Z,20.35
2023-02-19T05:24:15.020Z,39.42
2023-02-19T05:26:20.780Z,44.58
2023-02-19T05:28:31.434Z,37.22
2023-02-19T05:30:35.701Z,42.00
2023-02-19T05:32:39.350Z,36.30
2023-02-19T05:34:42.277Z,35.50
2023-02-19T05:36:45.517Z,36.10
2023-02-19T05:38:48.711Z,34.75
2023-02-19T05:40:51.949Z,40.25
2023-02-19T05:42:54.845Z,48.28
2023-02-19T05:44:59.390Z,42.65
2023-02-19T05:47:02.356Z,43.67
2023-02-19T05:49:05.275Z,69.15
2023-02-19T05:51:11.036Z,62.20
2023-02-19T05:53:14.511Z,35.28
2023-02-19T05:55:17.671Z,27.30
2023-02-19T05:57:21.917Z,25.38
2023-02-19T05:59:26.404Z,27.60
2023-02-19T06:01:31.391Z,20.13
2023-02-19T06:03:34.267Z,23.48
2023-02-19T06:05:38.192Z,25.10
2023-02-19T06:07:42.150Z,25.45
2023-02-19T06:09:45.157Z,12.27
2023-02-19T06:11:48.030Z,16.88
2023-02-19T06:13:51.154Z,20.25
2023-02-19T06:15:54.188Z,16.77
2023-02-19T06:17:58.803Z,20.50
2023-02-19T06:20:01.993Z,24.40
2023-02-19T06:22:05.017Z,20.13
2023-02-19T06:24:09.714Z,19.05
2023-02-19T06:26:15.638Z,18.52
2023-02-19T06:28:18.552Z,20.42
2023-02-19T06:30:21.538Z,22.20
2023-02-19T06:32:24.972Z,15.13
2023-02-19T06:34:29.614Z,26.83
2023-02-19T06:36:32.512Z,22.73
2023-02-19T06:38:35.437Z,26.50
2023-02-19T06:40:38.315Z,26.63
2023-02-19T06:42:41.436Z,34.30
2023-02-19T06:44:44.477Z,33.00
2023-02-19T06:46:47.467Z,23.88
2023-02-19T06:48:50.565Z,17.00
2023-02-19T06:50:55.728Z,16.00
2023-02-19T06:52:58.536Z,14.75
2023-02-19T06:55:01.592Z,15.77
2023-02-19T06:57:04.673Z,10.85
2023-02-19T06:59:10.618Z,11.93
2023-02-19T07:01:13.806Z,15.05
2023-02-19T07:03:16.833Z,12.10
2023-02-19T07:05:19.755Z,8.85
2023-02-19T07:07:24.240Z,13.70
2023-02-19T07:09:28.843Z,13.38
2023-02-19T07:11:34.314Z,10.43
2023-02-19T07:13:37.351Z,11.75
2023-02-19T07:15:40.316Z,15.70
2023-02-19T07:17:43.311Z,12.20
2023-02-19T07:19:46.451Z,12.73
2023-02-19T07:21:49.295Z,10.57
2023-02-19T07:23:54.123Z,8.93
2023-02-19T07:25:57.691Z,11.60
2023-02-19T07:28:00.830Z,10.23
2023-02-19T07:30:04.434Z,8.02
2023-02-19T07:32:07.828Z,10.85
2023-02-19T07:34:10.830Z,12.50
2023-02-19T07:36:14.850Z,10.02
2023-02-19T07:38:18.673Z,9.68
2023-02-19T07:40:23.153Z,11.02
2023-02-19T07:42:25.953Z,8.43
2023-02-19T07:44:29.008Z,9.43
2023-02-19T07:46:32.483Z,11.55
2023-02-19T07:48:35.701Z,15.48
2023-02-19T07:50:38.995Z,17.92
2023-02-19T07:52:41.997Z,20.73
2023-02-19T07:54:44.916Z,18.52
2023-02-19T07:56:49.475Z,21.60
2023-02-19T07:58:52.475Z,21.25
2023-02-19T08:00:55.650Z,19.02
2023-02-19T08:03:01.637Z,15.52
2023-02-19T08:05:06.098Z,17.98
2023-02-19T08:07:08.956Z,16.05
2023-02-19T08:09:12.323Z,13.65
2023-02-19T08:11:33.880Z,22.40
2023-02-19T08:13:38.583Z,19.23
2023-02-19T08:15:41.535Z,17.92
2023-02-19T08:17:44.475Z,21.75
2023-02-19T08:19:47.316Z,26.17
2023-02-19T08:21:51.051Z,22.92
2023-02-19T08:23:53.913Z,19.95
2023-02-19T08:25:59.009Z,21.15
2023-02-19T08:28:02.239Z,25.90
2023-02-19T08:30:09.301Z,25.35
2023-02-19T08:32:12.271Z,21.80
2023-02-19T08:34:15.353Z,26.25
2023-02-19T08:36:18.368Z,23.45
2023-02-19T08:38:21.474Z,27.17
2023-02-19T08:40:24.677Z,29.02
2023-02-19T08:42:29.916Z,26.23
2023-02-19T08:44:33.609Z,26.35
2023-02-19T08:46:38.474Z,19.15
2023-02-19T08:48:42.034Z,19.23
2023-02-19T08:50:44.953Z,16.95
2023-02-19T08:52:47.832Z,16.35
2023-02-19T08:54:50.750Z,16.38
2023-02-19T08:56:53.910Z,15.48
2023-02-19T08:58:56.991Z,10.77
2023-02-19T09:01:00.003Z,8.55
2023-02-19T09:03:04.619Z,6.95
2023-02-19T09:05:07.925Z,7.65
2023-02-19T09:07:12.741Z,8.05
2023-02-19T09:09:15.590Z,8.30
2023-02-19T09:11:18.611Z,7.32
2023-02-19T09:13:21.447Z,6.75
2023-02-19T09:15:24.429Z,4.95
2023-02-19T09:17:28.080Z,6.72
2023-02-19T09:19:33.032Z,4.05
2023-02-19T09:21:35.911Z,3.70
2023-02-19T09:23:38.914Z,6.80
2023-02-19T09:25:41.793Z,4.20
2023-02-19T09:27:44.834Z,5.07
2023-02-19T09:29:47.953Z,5.35
2023-02-19T09:31:50.929Z,2.80
2023-02-19T09:33:53.943Z,4.30
2023-02-19T09:36:01.555Z,4.22
2023-02-19T09:38:04.476Z,3.65
2023-02-19T09:40:08.318Z,2.25
2023-02-19T09:42:15.890Z,3.95
2023-02-19T09:44:27.996Z,4.40
2023-02-19T09:46:34.356Z,4.72
2023-02-19T09:48:37.454Z,4.18
2023-02-19T09:50:44.618Z,7.32
2023-02-19T09:52:53.104Z,4.53
2023-02-19T09:54:59.813Z,5.38
2023-02-19T09:57:04.101Z,2.42
2023-02-19T09:59:11.992Z,2.78
2023-02-19T10:01:15.751Z,3.17
2023-02-19T10:03:25.991Z,2.20
2023-02-19T10:05:29.590Z,3.25
2023-02-19T10:07:39.717Z,3.28
2023-02-19T10:09:48.909Z,2.10
2023-02-19T10:11:54.383Z,1.95
2023-02-19T10:14:09.564Z,2.47
2023-02-19T10:16:17.849Z,3.33
2023-02-19T10:18:23.522Z,3.90
2023-02-19T10:22:33.009Z,4.43
2023-02-19T10:24:38.317Z,5.90
2023-02-19T10:26:43.190Z,5.00
2023-02-19T10:28:46.172Z,4.13
2023-02-19T10:30:54.098Z,5.13
2023-02-19T10:33:03.115Z,4.95
2023-02-19T10:35:12.073Z,4.35
2023-02-19T10:37:18.405Z,6.07
2023-02-19T10:39:42.392Z,6.38
2023-02-19T10:41:46.791Z,4.13
2023-02-19T10:43:54.772Z,3.97
2023-02-19T10:45:59.111Z,4.57
2023-02-19T10:48:03.322Z,4.05
2023-02-19T10:50:09.244Z,1.63
2023-02-19T10:52:18.102Z,1.85
2023-02-19T10:54:25.893Z,1.25
2023-02-19T10:56:31.752Z,0.90
2023-02-19T10:58:38.111Z,2.30
2023-02-19T11:00:41.274Z,2.45
2023-02-19T11:02:45.097Z,3.03
2023-02-19T11:05:05.556Z,2.88
2023-02-19T11:07:10.752Z,2.22
2023-02-19T11:09:26.595Z,2.20
2023-02-19T11:11:34.170Z,1.98
2023-02-19T11:13:40.069Z,1.55
2023-02-19T11:15:44.630Z,1.98
2023-02-19T11:17:55.385Z,2.03
2023-02-19T11:20:00.798Z,1.70
2023-02-19T11:22:19.271Z,2.95
2023-02-19T11:24:34.436Z,1.10
2023-02-19T11:26:38.592Z,3.50
2023-02-19T11:28:44.592Z,4.22
2023-02-19T11:30:48.686Z,1.52
2023-02-19T11:32:51.581Z,2.08
2023-02-19T11:35:15.073Z,3.05
2023-02-19T11:37:21.252Z,3.90
2023-02-19T11:39:31.358Z,5.43
2023-02-19T11:41:56.953Z,4.70
2023-02-19T11:44:17.074Z,2.38
2023-02-19T11:46:28.111Z,2.08
2023-02-19T11:48:42.564Z,1.23
2023-02-19T11:50:59.555Z,3.17
2023-02-19T11:53:17.152Z,1.75
2023-02-19T11:55:32.152Z,2.97
2023-02-19T11:57:42.493Z,3.17
2023-02-19T11:59:54.791Z,4.70
2023-02-19T12:02:15.530Z,3.20
2023-02-19T12:05:08.518Z,2.58
2023-02-19T12:07:23.810Z,2.97
2023-02-19T12:09:37.470Z,4.40
2023-02-19T12:12:00.512Z,3.00
2023-02-19T12:14:20.957Z,1.33
2023-02-19T12:16:32.068Z,3.20
2023-02-19T12:19:02.588Z,2.30
2023-02-19T12:21:20.604Z,2.30
2023-02-19T12:24:04.848Z,4.03
2023-02-19T12:26:20.708Z,1.95
2023-02-19T12:28:56.547Z,2.75
2023-02-19T12:31:19.885Z,2.22
2023-02-19T12:33:54.040Z,4.50
2023-02-19T12:36:06.359Z,3.83
2023-02-19T12:38:22.686Z,3.78
2023-02-19T12:40:38.350Z,3.10
2023-02-19T12:42:52.406Z,5.65
2023-02-19T12:45:00.673Z,4.35
2023-02-19T12:47:07.321Z,3.50
2023-02-19T12:49:15.711Z,3.47
2023-02-19T12:51:24.393Z,9.85
2023-02-19T12:53:40.072Z,17.40
2023-02-19T12:55:46.353Z,9.95
2023-02-19T12:57:51.635Z,8.48
2023-02-19T13:00:00.596Z,10.43
2023-02-19T13:02:12.617Z,8.18
2023-02-19T13:04:26.483Z,11.75
2023-02-19T13:06:36.856Z,3.25
2023-02-19T13:08:57.871Z,6.25
2023-02-19T13:11:15.606Z,4.72
2023-02-19T13:13:24.801Z,1.23
2023-02-19T13:15:34.750Z,6.88
2023-02-19T13:17:43.077Z,6.38
2023-02-19T13:19:50.760Z,4.95
2023-02-19T13:22:21.998Z,6.50
2023-02-19T13:24:28.358Z,4.47
2023-02-19T13:26:46.157Z,3.88
2023-02-19T13:29:07.199Z,4.03
2023-02-19T13:31:25.416Z,3.85
2023-02-19T13:33:40.436Z,4.65
2023-02-19T13:36:13.396Z,4.72
2023-02-19T13:38:17.098Z,6.03
2023-02-19T13:40:31.415Z,8.73
2023-02-19T13:42:36.565Z,4.53
2023-02-19T13:44:42.156Z,5.30
2023-02-19T13:46:47.915Z,3.88
2023-02-19T13:51:51.463Z,7.72
2023-02-19T13:54:00.113Z,9.65
2023-02-19T13:56:03.240Z,10.27
2023-02-19T13:58:51.834Z,10.50
2023-02-19T14:00:55.414Z,6.88
2023-02-19T14:03:28.694Z,7.22
2023-02-19T14:06:00.474Z,5.82
2023-02-19T14:08:05.035Z,7.05
2023-02-19T14:10:13.192Z,4.93
2023-02-19T14:12:20.800Z,9.27
2023-02-19T14:14:29.164Z,5.35
2023-02-19T14:16:57.032Z,12.23
2023-02-19T14:19:00.110Z,17.92
2023-02-19T14:21:07.837Z,21.05
2023-02-19T14:23:17.480Z,33.40
2023-02-19T14:25:30.190Z,18.33
2023-02-19T14:27:33.153Z,11.48
2023-02-19T14:29:36.047Z,26.63
2023-02-19T14:31:39.389Z,22.42
2023-02-19T14:33:47.152Z,15.70
2023-02-19T14:35:53.921Z,12.43
2023-02-19T14:37:57.766Z,12.23
2023-02-19T14:40:03.228Z,15.35
2023-02-19T14:42:08.874Z,10.88
2023-02-19T14:48:29.830Z,8.43
2023-02-19T14:50:33.590Z,9.32
2023-02-19T14:52:41.302Z,8.98
2023-02-19T14:54:49.390Z,5.15
2023-02-19T14:56:54.846Z,6.63
2023-02-19T15:01:26.566Z,7.03
2023-02-19T15:03:34.721Z,4.22
2023-02-19T15:05:38.112Z,7.28
2023-02-19T15:07:42.559Z,5.38
2023-02-19T15:09:49.470Z,4.25
2023-02-19T15:11:55.351Z,8.60
2023-02-19T15:14:01.337Z,8.90
2023-02-19T15:16:05.275Z,8.05
2023-02-19T15:18:08.431Z,8.43
2023-02-19T15:20:17.402Z,7.18
2023-02-19T15:22:22.750Z,5.88
2023-02-19T15:24:25.895Z,5.97
2023-02-19T15:26:35.004Z,6.68
2023-02-19T15:28:39.555Z,3.33
2023-02-19T15:30:42.434Z,9.63
2023-02-19T15:32:52.785Z,7.30
2023-02-19T15:34:57.114Z,5.72
2023-02-19T15:37:03.012Z,9.05
2023-02-19T15:39:06.195Z,9.82
2023-02-19T15:41:20.144Z,6.53
2023-02-19T15:43:28.122Z,7.72
2023-02-19T15:45:40.226Z,9.07
2023-02-19T15:47:49.512Z,12.52
2023-02-19T15:49:57.801Z,12.43
2023-02-19T15:52:06.095Z,12.77
2023-02-19T15:54:18.753Z,14.07
2023-02-19T15:56:29.743Z,10.05
2023-02-19T15:58:38.553Z,12.35
2023-02-19T16:00:48.475Z,21.15
2023-02-19T16:02:51.420Z,34.22
2023-02-19T16:04:54.323Z,43.20
2023-02-19T16:06:58.882Z,49.63
2023-02-19T16:09:06.042Z,27.15
2023-02-19T16:11:30.159Z,32.63
2023-02-19T16:13:35.402Z,28.60
2023-02-19T16:15:40.312Z,19.42
2023-02-19T16:17:45.774Z,20.48
2023-02-19T16:19:54.843Z,19.35
2023-02-19T16:21:59.113Z,21.15
2023-02-19T16:24:11.732Z,21.63
2023-02-19T16:26:14.972Z,27.63
2023-02-19T16:28:24.388Z,21.63
2023-02-19T16:30:30.546Z,23.13
2023-02-19T16:32:33.648Z,18.33
2023-02-19T16:34:42.808Z,23.13
2023-02-19T16:36:48.675Z,23.05
2023-02-19T16:39:17.464Z,20.63
2023-02-19T16:41:20.688Z,19.75
2023-02-19T16:43:38.219Z,14.45
2023-02-19T16:45:42.229Z,14.07
2023-02-19T16:47:48.661Z,10.70
2023-02-19T16:49:53.437Z,9.75
2023-02-19T16:51:56.755Z,13.85
2023-02-19T16:53:59.681Z,8.90
2023-02-19T16:56:02.778Z,9.90
2023-02-19T16:58:05.617Z,11.48
2023-02-19T17:00:09.438Z,7.53
2023-02-19T17:02:19.676Z,12.07
2023-02-19T17:04:22.644Z,22.73
2023-02-19T17:06:27.536Z,22.17
2023-02-19T17:08:34.406Z,24.55
2023-02-19T17:10:37.275Z,14.30
2023-02-19T17:12:40.055Z,19.30
2023-02-19T17:14:43.198Z,21.02
2023-02-19T17:16:46.295Z,17.95
2023-02-19T17:18:49.486Z,20.25
2023-02-19T17:20:57.583Z,21.73
2023-02-19T17:23:02.111Z,24.60
2023-02-19T17:25:05.574Z,32.97
2023-02-19T17:27:11.673Z,57.45
2023-02-19T17:29:15.761Z,74.97
2023-02-19T17:31:19.012Z,64.13
2023-02-19T17:33:21.952Z,49.67
2023-02-19T17:35:25.502Z,61.53
2023-02-19T17:37:28.353Z,67.25
2023-02-19T17:39:32.841Z,53.65
2023-02-19T17:41:35.964Z,39.30
2023-02-19T17:43:38.754Z,39.60
2023-02-19T17:45:41.648Z,36.30
2023-02-19T17:47:44.511Z,26.73
2023-02-19T17:49:47.308Z,24.05
2023-02-19T17:51:50.118Z,23.15
2023-02-19T17:53:53.055Z,23.45
2023-02-19T17:55:57.351Z,32.30
2023-02-19T17:58:00.789Z,35.22
2023-02-19T18:00:04.842Z,48.03
2023-02-19T18:02:15.280Z,53.38
2023-02-19T18:04:18.198Z,53.45
2023-02-19T18:06:21.172Z,39.90
2023-02-19T18:08:24.071Z,34.28
2023-02-19T18:10:27.586Z,46.97
2023-02-19T18:12:32.074Z,43.70
2023-02-19T18:14:34.855Z,36.78
2023-02-19T18:16:37.832Z,28.45
2023-02-19T18:18:41.704Z,23.77
2023-02-19T18:20:44.713Z,26.40
2023-02-19T18:22:47.603Z,25.77
2023-02-19T18:24:52.966Z,30.58
2023-02-19T18:26:55.870Z,50.55
2023-02-19T18:29:00.451Z,60.65
2023-02-19T18:31:03.540Z,58.75
2023-02-19T18:33:06.952Z,43.83
2023-02-19T18:35:10.271Z,47.33
2023-02-19T18:37:13.112Z,54.33
2023-02-19T18:39:16.431Z,50.97
2023-02-19T18:41:21.270Z,64.10
2023-02-19T18:43:24.512Z,65.35
2023-02-19T18:45:29.952Z,68.85
2023-02-19T18:47:33.032Z,65.00
2023-02-19T18:49:35.989Z,74.57
2023-02-19T18:51:38.803Z,94.90
2023-02-19T18:53:43.037Z,110.43
2023-02-19T18:55:45.812Z,340.25
2023-02-19T18:57:49.609Z,1228.55
2023-02-19T18:59:52.565Z,1314.22
2023-02-19T19:01:57.202Z,839.97
2023-02-19T19:06:03.836Z,308.70
2023-02-19T19:08:06.673Z,451.90
2023-02-19T19:10:10.435Z,492.52
2023-02-19T19:12:13.274Z,271.15
2023-02-19T19:14:16.168Z,112.75
2023-02-19T19:16:19.038Z,46.40
2023-02-19T19:18:23.577Z,105.03
2023-02-19T19:20:26.583Z,44.00
2023-02-19T19:22:29.481Z,63.40
2023-02-19T19:24:32.421Z,81.93
2023-02-19T19:26:35.751Z,61.63
2023-02-19T19:28:44.728Z,101.22
2023-02-19T19:30:47.704Z,74.57
2023-02-19T19:32:51.871Z,107.28
2023-02-19T19:34:58.088Z,122.28
2023-02-19T19:37:01.199Z,93.78
2023-02-19T19:39:04.723Z,45.25
2023-02-19T19:41:07.957Z,68.68
2023-02-19T19:43:10.996Z,75.97
2023-02-19T19:45:14.836Z,55.05
2023-02-19T19:47:18.040Z,140.52
2023-02-19T19:49:22.639Z,58.88
2023-02-19T19:51:31.678Z,124.00
2023-02-19T19:53:34.599Z,134.20
2023-02-19T19:55:37.716Z,155.77
2023-02-19T19:57:40.983Z,99.55
2023-02-19T19:59:44.074Z,118.05
2023-02-19T20:01:52.583Z,132.32
2023-02-19T20:03:55.759Z,107.40
2023-02-19T20:05:58.875Z,94.25
2023-02-19T20:08:03.490Z,84.68
2023-02-19T20:10:07.330Z,77.20
2023-02-19T20:12:11.231Z,73.80
2023-02-19T20:14:14.795Z,95.65
2023-02-19T20:16:23.435Z,97.15
2023-02-19T20:18:26.954Z,145.90
2023-02-19T20:20:30.914Z,111.60
2023-02-19T20:22:33.914Z,98.57
2023-02-19T20:24:38.485Z,97.70
2023-02-19T20:26:41.455Z,73.10
2023-02-19T20:28:46.794Z,63.63
2023-02-19T20:30:50.143Z,56.05
2023-02-19T20:32:53.922Z,47.25
2023-02-19T20:34:56.834Z,45.97
2023-02-19T20:37:00.001Z,47.28
2023-02-19T20:39:02.915Z,53.33
2023-02-19T20:41:07.474Z,47.15
2023-02-19T20:43:10.393Z,38.38
2023-02-19T20:45:17.028Z,41.90
2023-02-19T20:47:19.843Z,53.67
2023-02-19T20:49:25.633Z,51.38
2023-02-19T20:51:28.599Z,51.42
2023-02-19T20:53:32.360Z,61.72
2023-02-19T20:55:35.474Z,43.20
2023-02-19T20:57:40.095Z,38.63
2023-02-19T20:59:44.432Z,34.67
2023-02-19T21:01:47.521Z,40.95
2023-02-19T21:03:50.433Z,28.33
2023-02-19T21:05:53.336Z,32.00
2023-02-19T21:07:56.164Z,39.47
2023-02-19T21:09:59.193Z,40.65
2023-02-19T21:12:02.158Z,45.72
2023-02-19T21:14:06.675Z,35.22
2023-02-19T21:16:10.285Z,31.95
2023-02-19T21:18:13.676Z,34.85
2023-02-19T21:20:20.434Z,29.40
2023-02-19T21:22:23.674Z,30.80
2023-02-19T21:24:26.746Z,29.90
2023-02-19T21:26:35.355Z,24.42
2023-02-19T21:28:38.834Z,27.98
2023-02-19T21:30:43.326Z,30.10
2023-02-19T21:32:46.269Z,30.60
2023-02-19T21:34:49.358Z,37.22
2023-02-19T21:36:52.520Z,45.03
2023-02-19T21:38:55.477Z,37.13
2023-02-19T21:40:58.474Z,35.70
2023-02-19T21:43:02.114Z,28.52
2023-02-19T21:45:05.706Z,34.75
2023-02-19T21:47:11.717Z,33.35
2023-02-19T21:49:14.529Z,34.15
2023-02-19T21:51:18.358Z,31.80
2023-02-19T21:53:21.353Z,33.13
2023-02-19T21:55:24.316Z,30.40
2023-02-19T21:57:27.324Z,33.78
2023-02-19T21:59:30.288Z,36.72
2023-02-19T22:01:35.711Z,42.92
2023-02-19T22:03:40.131Z,36.53
2023-02-19T22:05:43.230Z,29.70
2023-02-19T22:07:47.914Z,31.10
2023-02-19T22:09:51.593Z,30.38
2023-02-19T22:11:54.432Z,26.88
2023-02-19T22:13:57.289Z,25.98
2023-02-19T22:16:00.316Z,27.45
2023-02-19T22:18:03.535Z,27.90
2023-02-19T22:20:08.910Z,25.70
2023-02-19T22:22:11.807Z,26.38
2023-02-19T22:24:17.910Z,29.50
2023-02-19T22:26:22.752Z,24.50
2023-02-19T22:28:25.729Z,21.35
2023-02-19T22:30:28.672Z,23.10
2023-02-19T22:32:32.023Z,25.00
2023-02-19T22:34:39.671Z,26.85
2023-02-19T22:36:44.725Z,32.78
2023-02-19T22:38:48.082Z,36.20
2023-02-19T22:40:51.029Z,32.35
2023-02-19T22:42:53.949Z,33.67
2023-02-19T22:44:56.949Z,39.05
2023-02-19T22:47:00.218Z,37.17
2023-02-19T22:49:05.036Z,35.25
2023-02-19T22:51:13.379Z,34.15
2023-02-19T22:53:17.784Z,49.03
2023-02-19T22:55:20.809Z,38.42
2023-02-19T22:57:23.749Z,36.50
2023-02-19T22:59:26.670Z,34.28
2023-02-19T23:01:29.644Z,33.70
2023-02-19T23:03:32.634Z,29.52
2023-02-19T23:05:35.673Z,29.55
2023-02-19T23:07:38.672Z,32.33
2023-02-19T23:09:43.294Z,26.15
2023-02-19T23:11:46.596Z,29.63
2023-02-19T23:13:49.797Z,25.65
2023-02-19T23:15:52.716Z,27.00
2023-02-19T23:17:55.726Z,25.80
2023-02-19T23:19:58.528Z,25.52
2023-02-19T23:22:01.596Z,25.98
2023-02-19T23:24:05.956Z,22.58
2023-02-19T23:26:11.225Z,28.42
2023-02-19T23:28:14.390Z,23.95
2023-02-19T23:30:18.097Z,26.25
2023-02-19T23:32:21.437Z,38.58
2023-02-19T23:34:24.844Z,33.17
2023-02-19T23:36:27.715Z,36.25
2023-02-19T23:38:30.721Z,46.13
2023-02-19T23:40:33.595Z,35.22
2023-02-19T23:42:38.116Z,37.50
2023-02-19T23:44:41.003Z,34.13
2023-02-19T23:46:44.075Z,24.42
2023-02-19T23:48:47.024Z,23.75
2023-02-19T23:50:50.151Z,19.85
2023-02-19T23:52:52.929Z,23.33
2023-02-19T23:54:56.954Z,21.92
2023-02-19T23:56:59.957Z,21.30
2023-02-19T23:59:04.716Z,18.48
